Hat Yai, Thailand

12:41 PM ICT on February 12, 2016 (GMT +0700)
Hat Yai International | | Change Station
CLOSE
Current Station
Airport
Location: Hat Yai,
Elevation: 89 ft
Nearby Weather Stations

Elev 89 ft 6.93 °N, 100.39 °E | Updated 11 minutes ago

Scattered Clouds
Scattered Clouds
91 °F
Feels Like 100 °F
N
17
Wind Variable Wind from ENE

Today
High -- | Low -- °F
--% Chance of Precip.
Yesterday
High -- | Low -- °F
Precip. -- in
Pressure 29.83 in
Visibility 6.2 miles
Clouds Scattered Clouds 2000 ft
Heat Index 100 °F
Dew Point 73 °F
Humidity 55%
Rainfall 0.00 in
Snow Depth Not available.
6:35 AM 6:29 PM
Waxing Crescent, 17% visible
METAR VTSS 120530Z 07015KT 9999 SCT020 33/23 Q1010 A2983 NOSIG
Pressure 29.83 in
Visibility 6.2 miles
Clouds Scattered Clouds 2000 ft
Heat Index 100 °F
Dew Point 73 °F
Humidity 55%
Rainfall 0.00 in
Snow Depth Not available.
6:35 AM 6:29 PM
Waxing Crescent, 17% visible
METAR VTSS 120530Z 07015KT 9999 SCT020 33/23 Q1010 A2983 NOSIG

10-Day Weather Forecast

No radar image for this location.
×

Almanac

Astronomy

Feb. 12, 2016 Rise Set
Actual Time
Civil Twilight
Nautical Twilight
Astronomical Twilight
Moon
Length of Visible Light
Length of Day
Tomorrow will be .
, % of the Moon is Illuminated

Today's Extremes

Country Highs Country Lows

Community

WunderPhotos

Upload Photos

1,892,269 photos uploaded!

WunderBlog® & News

Nearby

Air Quality

  Air Quality AQ Index Pollutant
Not available.

Snow Depth

Station Depth Elevation

Earthquake Activity

City Distance Mag. Time & Date
Minimum magnitude displayed is 2.5.

Coastal Water Temperatures

Place Temperature

Stations

Nearby Weather Stations

Station Location Temp. Windchill Dew Point Humidity Wind Precip. Elev Updated Type